createdAt,value
2022-11-09T00:01:36.537Z,101068.59
2022-11-09T00:04:06.543Z,101075.81
2022-11-09T00:06:37.529Z,101068.41
2022-11-09T00:09:12.599Z,101078.97
2022-11-09T00:11:40.487Z,101071.50
2022-11-09T00:14:14.295Z,101056.28
2022-11-09T00:16:43.925Z,101076.81
2022-11-09T00:19:11.571Z,101071.78
2022-11-09T00:21:40.097Z,101074.50
2022-11-09T00:24:10.612Z,101091.84
2022-11-09T00:26:38.544Z,101092.84
2022-11-09T00:29:06.751Z,101087.78
2022-11-09T00:31:36.100Z,101089.56
2022-11-09T00:34:04.284Z,101100.69
2022-11-09T00:36:32.272Z,101078.06
2022-11-09T00:39:03.405Z,101094.94
2022-11-09T00:41:31.676Z,101093.31
2022-11-09T00:43:59.715Z,101107.88
2022-11-09T00:46:28.419Z,101099.34
2022-11-09T00:48:56.881Z,101105.34
2022-11-09T00:51:25.036Z,101105.38
2022-11-09T00:53:55.272Z,101113.97
2022-11-09T00:56:23.312Z,101111.44
2022-11-09T00:58:56.197Z,101110.63
2022-11-09T01:01:25.670Z,101111.50
2022-11-09T01:03:54.497Z,101120.91
2022-11-09T01:06:24.946Z,101125.25
2022-11-09T01:08:54.177Z,101117.56
2022-11-09T01:11:24.636Z,101120.31
2022-11-09T01:13:53.161Z,101137.38
2022-11-09T01:16:23.598Z,101143.44
2022-11-09T01:18:56.529Z,101136.59
2022-11-09T01:21:24.729Z,101142.63
2022-11-09T01:23:52.984Z,101142.63
2022-11-09T01:26:21.003Z,101140.94
2022-11-09T01:28:49.005Z,101154.69
2022-11-09T01:31:23.470Z,101148.78
2022-11-09T01:33:52.146Z,101157.34
2022-11-09T01:36:25.218Z,101151.44
2022-11-09T01:38:54.332Z,101163.47
2022-11-09T01:41:28.579Z,101169.47
2022-11-09T01:44:20.226Z,101170.38
2022-11-09T01:46:51.092Z,101162.63
2022-11-09T01:49:48.410Z,101173.75
2022-11-09T01:52:30.295Z,101176.38
2022-11-09T01:55:03.918Z,101174.69
2022-11-09T01:57:42.639Z,101173.84
2022-11-09T02:00:14.109Z,101178.16
2022-11-09T02:02:47.935Z,101185.84
2022-11-09T02:05:20.547Z,101190.19
2022-11-09T02:07:50.148Z,101184.22
2022-11-09T02:10:38.152Z,101186.78
2022-11-09T02:13:10.241Z,101189.38
2022-11-09T02:15:58.104Z,101190.34
2022-11-09T02:18:26.456Z,101186.97
2022-11-09T02:20:57.864Z,101193.75
2022-11-09T02:23:28.352Z,101204.88
2022-11-09T02:26:11.877Z,101203.19
2022-11-09T02:28:45.275Z,101210.91
2022-11-09T02:31:16.716Z,101204.03
2022-11-09T02:34:01.883Z,101207.50
2022-11-09T02:36:29.838Z,101206.69
2022-11-09T02:38:59.118Z,101204.03
2022-11-09T02:41:30.785Z,101207.47
2022-11-09T02:44:01.329Z,101216.84
2022-11-09T02:46:35.152Z,101216.84
2022-11-09T02:49:04.687Z,101216.84
2022-11-09T02:51:33.033Z,101215.97
2022-11-09T02:54:01.108Z,101208.38
2022-11-09T02:56:30.730Z,101221.97
2022-11-09T02:58:58.741Z,101229.69
2022-11-09T03:01:26.819Z,101220.25
2022-11-09T03:03:55.852Z,101230.50
2022-11-09T03:06:34.982Z,101227.94
2022-11-09T03:09:09.432Z,101241.72
2022-11-09T03:11:39.140Z,101234.88
2022-11-09T03:14:10.333Z,101225.56
2022-11-09T03:16:40.050Z,101236.59
2022-11-09T03:19:08.486Z,101252.09
2022-11-09T03:21:36.602Z,101241.81
2022-11-09T03:24:04.811Z,101240.94
2022-11-09T03:26:33.898Z,101199.38
2022-11-09T03:29:01.812Z,101246.91
2022-11-09T03:31:30.807Z,101246.09
2022-11-09T03:33:59.011Z,101247.00
2022-11-09T03:36:27.054Z,101252.94
2022-11-09T03:38:55.201Z,101252.94
2022-11-09T03:41:23.173Z,101255.53
2022-11-09T03:43:51.182Z,101259.81
2022-11-09T03:46:19.271Z,101252.13
2022-11-09T03:48:47.213Z,101255.56
2022-11-09T03:51:15.283Z,101260.72
2022-11-09T03:53:43.380Z,101258.16
2022-11-09T03:56:11.365Z,101258.13
2022-11-09T03:58:39.408Z,101267.56
2022-11-09T04:01:07.639Z,101270.09
2022-11-09T04:03:35.670Z,101264.97
2022-11-09T04:06:03.765Z,101255.50
2022-11-09T04:08:31.966Z,101258.88
2022-11-09T04:10:59.945Z,101265.69
2022-11-09T04:13:27.988Z,101269.13
2022-11-09T04:15:56.196Z,101263.16
2022-11-09T04:18:24.202Z,101259.69
2022-11-09T04:20:52.219Z,101263.06
2022-11-09T04:23:21.430Z,101271.63
2022-11-09T04:25:49.698Z,101266.53
2022-11-09T04:28:17.677Z,101263.06
2022-11-09T04:30:46.557Z,101272.44
2022-11-09T04:33:14.691Z,101277.50
2022-11-09T04:35:42.818Z,101277.44
2022-11-09T04:38:14.177Z,101275.69
2022-11-09T04:40:42.448Z,101279.94
2022-11-09T04:43:14.169Z,101280.75
2022-11-09T04:45:42.647Z,101277.28
2022-11-09T04:48:12.729Z,101290.13
2022-11-09T04:50:40.763Z,101269.66
2022-11-09T04:53:14.100Z,101289.28
2022-11-09T04:55:42.880Z,101287.59
2022-11-09T04:58:10.943Z,101292.69
2022-11-09T05:00:40.579Z,101291.03
2022-11-09T05:03:08.857Z,101289.28
2022-11-09T05:05:38.492Z,101308.13
2022-11-09T05:08:08.305Z,101293.53
2022-11-09T05:10:38.081Z,101305.59
2022-11-09T05:13:09.355Z,101306.41
2022-11-09T05:15:40.262Z,101303.03
2022-11-09T05:18:09.911Z,101306.34
2022-11-09T05:20:38.143Z,101298.72
2022-11-09T05:23:24.813Z,101310.63
2022-11-09T05:25:52.787Z,101317.47
2022-11-09T05:28:20.781Z,101313.22
2022-11-09T05:30:48.897Z,101314.00
2022-11-09T05:33:18.276Z,101302.06
2022-11-09T05:35:46.150Z,101313.91
2022-11-09T05:38:18.171Z,101309.59
2022-11-09T05:40:52.437Z,101317.25
2022-11-09T05:43:22.726Z,101313.69
2022-11-09T05:45:50.967Z,101310.09
2022-11-09T05:48:19.490Z,101306.53
2022-11-09T05:50:47.633Z,101305.66
2022-11-09T05:53:15.674Z,101308.09
2022-11-09T05:55:43.669Z,101318.41
2022-11-09T05:58:11.926Z,101317.44
2022-11-09T06:00:40.035Z,101313.09
2022-11-09T06:03:10.233Z,101325.78
2022-11-09T06:05:43.292Z,101313.63
2022-11-09T06:08:16.026Z,101314.44
2022-11-09T06:10:44.454Z,101323.84
2022-11-09T06:13:12.921Z,101330.72
2022-11-09T06:15:41.012Z,101328.97
2022-11-09T06:18:09.139Z,101320.44
2022-11-09T06:20:37.318Z,101323.84
2022-11-09T06:23:05.512Z,101320.38
2022-11-09T06:25:34.390Z,101317.78
2022-11-09T06:28:02.559Z,101328.16
2022-11-09T06:30:30.798Z,101311.22
2022-11-09T06:33:00.763Z,101334.25
2022-11-09T06:35:29.689Z,101319.75
2022-11-09T06:38:01.869Z,101330.88
2022-11-09T06:40:30.133Z,101319.66
2022-11-09T06:43:00.898Z,101324.03
2022-11-09T06:45:30.872Z,101326.53
2022-11-09T06:48:00.582Z,101328.22
2022-11-09T06:50:32.612Z,101317.03
2022-11-09T06:53:03.729Z,101328.28
2022-11-09T06:55:33.404Z,101332.59
2022-11-09T06:58:01.729Z,101329.97
2022-11-09T07:00:29.710Z,101333.44
2022-11-09T07:02:58.997Z,101336.97
2022-11-09T07:05:30.244Z,101331.84
2022-11-09T07:07:58.460Z,101331.84
2022-11-09T07:10:26.440Z,101332.75
2022-11-09T07:12:59.361Z,101339.69
2022-11-09T07:15:27.271Z,101340.56
2022-11-09T07:17:59.315Z,101337.13
2022-11-09T07:20:28.525Z,101330.41
2022-11-09T07:22:56.606Z,101322.81
2022-11-09T07:25:26.420Z,101340.63
2022-11-09T07:27:56.673Z,101342.38
2022-11-09T07:30:24.624Z,101345.78
2022-11-09T07:33:09.940Z,101336.31
2022-11-09T07:35:38.686Z,101347.41
2022-11-09T07:38:06.692Z,101336.22
2022-11-09T07:40:35.157Z,101349.06
2022-11-09T07:43:06.540Z,101354.19
2022-11-09T07:45:36.624Z,101355.00
2022-11-09T07:48:10.512Z,101353.28
2022-11-09T07:50:41.897Z,101361.88
2022-11-09T07:53:13.533Z,101357.59
2022-11-09T07:55:42.745Z,101361.91
2022-11-09T07:58:15.340Z,101361.94
2022-11-09T08:00:45.381Z,101372.19
2022-11-09T08:03:14.948Z,101367.97
2022-11-09T08:05:43.061Z,101371.34
2022-11-09T08:08:12.566Z,101369.63
2022-11-09T08:10:40.917Z,101370.47
2022-11-09T08:13:16.405Z,101369.63
2022-11-09T08:15:45.255Z,101375.63
2022-11-09T08:18:16.628Z,101379.13
2022-11-09T08:20:45.701Z,101374.78
2022-11-09T08:23:16.130Z,101376.47
2022-11-09T08:25:44.290Z,101371.38
2022-11-09T08:28:14.974Z,101377.41
2022-11-09T08:30:44.445Z,101377.44
2022-11-09T08:33:13.377Z,101378.31
2022-11-09T08:35:41.597Z,101384.22
2022-11-09T08:38:10.855Z,101382.56
2022-11-09T08:40:38.880Z,101376.44
2022-11-09T08:43:10.413Z,101381.56
2022-11-09T08:45:40.409Z,101383.28
2022-11-09T08:48:11.009Z,101374.03
2022-11-09T08:50:41.643Z,101385.00
2022-11-09T08:53:09.950Z,101386.84
2022-11-09T08:55:38.076Z,101393.66
2022-11-09T08:58:06.412Z,101386.06
2022-11-09T09:00:34.577Z,101382.63
2022-11-09T09:03:06.773Z,101396.34
2022-11-09T09:05:38.332Z,101399.78
2022-11-09T09:08:07.584Z,101396.38
2022-11-09T09:10:36.206Z,101413.59
2022-11-09T09:13:08.928Z,101405.03
2022-11-09T09:15:36.906Z,101395.78
2022-11-09T09:18:05.297Z,101399.91
2022-11-09T09:20:34.358Z,101405.03
2022-11-09T09:23:02.408Z,101403.25
2022-11-09T09:25:30.584Z,101399.81
2022-11-09T09:27:58.943Z,101414.38
2022-11-09T09:30:27.077Z,101415.25
2022-11-09T09:33:00.285Z,101409.25
2022-11-09T09:35:29.459Z,101412.75
2022-11-09T09:37:58.974Z,101414.44
2022-11-09T09:40:56.164Z,101417.00
2022-11-09T09:43:42.976Z,101418.75
2022-11-09T09:46:30.237Z,101417.03
2022-11-09T09:49:04.892Z,101419.63
2022-11-09T09:51:45.177Z,101415.34
2022-11-09T09:54:20.435Z,101417.03
2022-11-09T09:56:51.784Z,101421.34
2022-11-09T09:59:44.313Z,101426.50
2022-11-09T10:02:35.399Z,101424.81
2022-11-09T10:05:12.307Z,101427.44
2022-11-09T10:07:51.245Z,101426.69
2022-11-09T10:10:31.374Z,101436.06
2022-11-09T10:13:20.995Z,101432.66
2022-11-09T10:16:03.668Z,101441.25
2022-11-09T10:18:46.621Z,101440.41
2022-11-09T10:21:21.403Z,101449.88
2022-11-09T10:23:56.063Z,101451.66
2022-11-09T10:26:50.141Z,101446.53
2022-11-09T10:29:24.943Z,101447.41
2022-11-09T10:32:02.555Z,101451.72
2022-11-09T10:34:39.904Z,101448.31
2022-11-09T10:37:17.277Z,101445.72
2022-11-09T10:40:22.666Z,101450.03
2022-11-09T10:42:55.784Z,101464.59
2022-11-09T10:45:29.875Z,101449.22
2022-11-09T10:47:58.257Z,101463.75
2022-11-09T10:50:36.077Z,101452.56
2022-11-09T10:53:19.923Z,101451.66
2022-11-09T10:57:05.492Z,101454.28
2022-11-09T10:59:55.114Z,101450.81
2022-11-09T11:02:31.440Z,101451.66
2022-11-09T11:05:08.688Z,101450.84
2022-11-09T11:07:39.156Z,101453.38
2022-11-09T11:10:12.845Z,101431.34
2022-11-09T11:12:40.834Z,101455.09
2022-11-09T11:15:29.983Z,101452.53
2022-11-09T11:18:12.375Z,101460.31
2022-11-09T11:20:40.644Z,101457.78
2022-11-09T11:23:18.812Z,101469.78
2022-11-09T11:25:57.876Z,101466.31
2022-11-09T11:28:43.401Z,101469.75
2022-11-09T11:31:18.306Z,101464.69
2022-11-09T11:33:47.152Z,101473.13
2022-11-09T11:36:34.643Z,101479.16
2022-11-09T11:39:40.426Z,101490.31
2022-11-09T11:42:34.728Z,101483.47
2022-11-09T11:45:38.805Z,101492.88
2022-11-09T11:48:34.377Z,101489.47
2022-11-09T11:51:10.682Z,101491.25
2022-11-09T11:54:12.643Z,101488.63
2022-11-09T11:56:48.959Z,101492.13
2022-11-09T11:59:39.904Z,101495.47
2022-11-09T12:02:22.835Z,101496.38
2022-11-09T12:04:52.744Z,101499.81
2022-11-09T12:07:57.177Z,101503.22
2022-11-09T12:10:57.679Z,101516.09
2022-11-09T12:13:25.292Z,101504.06
2022-11-09T12:16:00.926Z,101510.09
2022-11-09T12:18:35.606Z,101514.41
2022-11-09T12:21:16.223Z,101510.13
2022-11-09T12:24:05.805Z,101510.97
2022-11-09T12:26:36.360Z,101516.13
2022-11-09T12:29:08.993Z,101518.69
2022-11-09T12:31:49.119Z,101512.69
2022-11-09T12:34:58.279Z,101512.69
2022-11-09T12:37:37.960Z,101515.25
2022-11-09T12:40:24.034Z,101509.28
2022-11-09T12:43:07.811Z,101519.53
2022-11-09T12:45:39.382Z,101523.84
2022-11-09T12:48:37.117Z,101516.25
2022-11-09T12:51:08.332Z,101528.16
2022-11-09T12:53:38.574Z,101533.25
2022-11-09T12:56:22.308Z,101525.56
2022-11-09T12:58:50.523Z,101527.28
2022-11-09T13:01:27.605Z,101524.72
2022-11-09T13:04:00.314Z,101528.16
2022-11-09T13:06:30.555Z,101526.44
2022-11-09T13:09:07.652Z,101521.31
2022-11-09T13:11:42.517Z,101528.16
2022-11-09T13:14:33.302Z,101527.31
2022-11-09T13:17:22.435Z,101525.59
2022-11-09T13:19:57.355Z,101527.44
2022-11-09T13:22:27.993Z,101524.78
2022-11-09T13:25:02.655Z,101524.81
2022-11-09T13:27:45.991Z,101534.22
2022-11-09T13:30:26.471Z,101526.50
2022-11-09T13:33:12.353Z,101523.91
2022-11-09T13:35:43.875Z,101518.75
2022-11-09T13:38:23.055Z,101529.94
2022-11-09T13:40:52.823Z,101523.94
2022-11-09T13:43:29.227Z,101530.81
2022-11-09T13:45:58.930Z,101532.53
2022-11-09T13:48:40.743Z,101528.25
2022-11-09T13:51:14.845Z,101524.00
2022-11-09T13:53:54.445Z,101526.63
2022-11-09T13:56:27.043Z,101524.88
2022-11-09T13:59:10.163Z,101529.19
2022-11-09T14:01:53.641Z,101524.06
2022-11-09T14:04:30.570Z,101516.47
2022-11-09T14:07:04.290Z,101525.81
2022-11-09T14:10:08.202Z,101520.66
2022-11-09T14:13:01.702Z,101520.63
2022-11-09T14:15:51.203Z,101518.03
2022-11-09T14:18:44.732Z,101524.03
2022-11-09T14:21:29.806Z,101518.88
2022-11-09T14:24:23.091Z,101515.41
2022-11-09T14:27:17.129Z,101522.28
2022-11-09T14:29:50.297Z,101525.72
2022-11-09T14:32:37.710Z,101530.84
2022-11-09T14:35:28.699Z,101519.75
2022-11-09T14:37:58.676Z,101528.25
2022-11-09T14:40:32.447Z,101517.09
2022-11-09T14:43:04.598Z,101510.22
2022-11-09T14:45:33.127Z,101509.34
2022-11-09T14:48:01.428Z,101518.75
2022-11-09T14:50:38.122Z,101516.13
2022-11-09T14:53:07.144Z,101528.13
2022-11-09T14:55:41.932Z,101511.81
2022-11-09T14:58:15.181Z,101524.69
2022-11-09T15:00:46.150Z,101522.09
2022-11-09T15:03:30.524Z,101524.63
2022-11-09T15:06:11.134Z,101505.91
2022-11-09T15:08:50.706Z,101516.94
2022-11-09T15:11:19.059Z,101522.09
2022-11-09T15:13:48.933Z,101528.16
2022-11-09T15:16:27.865Z,101533.25
2022-11-09T15:18:55.990Z,101518.72
2022-11-09T15:21:45.254Z,101528.06
2022-11-09T15:24:13.371Z,101530.59
2022-11-09T15:26:47.982Z,101540.00
2022-11-09T15:29:27.848Z,101541.69
2022-11-09T15:32:24.909Z,101525.53
2022-11-09T15:34:56.348Z,101528.84
2022-11-09T15:37:47.789Z,101540.84
2022-11-09T15:40:20.973Z,101539.09
2022-11-09T15:42:49.066Z,101545.09
2022-11-09T15:45:20.232Z,101545.09
2022-11-09T15:47:55.237Z,101557.13
2022-11-09T15:50:26.924Z,101550.22
2022-11-09T15:52:54.929Z,101546.78
2022-11-09T15:55:24.986Z,101554.50
2022-11-09T15:57:55.621Z,101546.78
2022-11-09T16:00:24.229Z,101551.97
2022-11-09T16:02:52.441Z,101542.63
2022-11-09T16:05:20.414Z,101548.53
2022-11-09T16:07:56.787Z,101556.28
2022-11-09T16:10:27.854Z,101536.66
2022-11-09T16:12:56.622Z,101560.53
2022-11-09T16:15:27.553Z,101551.16
2022-11-09T16:17:55.605Z,101557.13
2022-11-09T16:20:23.690Z,101561.41
2022-11-09T16:22:51.814Z,101560.56
2022-11-09T16:25:19.806Z,101560.50
2022-11-09T16:27:50.696Z,101565.66
2022-11-09T16:30:22.674Z,101560.50
2022-11-09T16:32:50.862Z,101565.63
2022-11-09T16:35:27.589Z,101569.94
2022-11-09T16:37:58.776Z,101570.78
2022-11-09T16:40:28.399Z,101565.69
2022-11-09T16:42:56.388Z,101564.81
2022-11-09T16:45:26.885Z,101555.41
2022-11-09T16:47:59.572Z,101549.50
2022-11-09T16:50:27.733Z,101562.25
2022-11-09T16:52:58.544Z,101559.66
2022-11-09T16:55:26.566Z,101564.81
2022-11-09T16:57:55.157Z,101559.66
2022-11-09T17:00:42.398Z,101563.94
2022-11-09T17:03:16.382Z,101563.09
2022-11-09T17:05:44.838Z,101567.38
2022-11-09T17:08:13.713Z,101563.13
2022-11-09T17:10:44.086Z,101557.03
2022-11-09T17:13:13.725Z,101572.47
2022-11-09T17:15:49.033Z,101569.88
2022-11-09T17:18:17.268Z,101581.91
2022-11-09T17:20:51.416Z,101571.63
2022-11-09T17:23:20.337Z,101557.91
2022-11-09T17:26:02.983Z,101564.72
2022-11-09T17:28:32.440Z,101564.75
2022-11-09T17:31:00.443Z,101565.56
2022-11-09T17:33:29.974Z,101568.13
2022-11-09T17:36:02.844Z,101566.41
2022-11-09T17:38:31.594Z,101566.41
2022-11-09T17:41:08.272Z,101568.09
2022-11-09T17:43:38.859Z,101572.38
2022-11-09T17:46:09.888Z,101562.94
2022-11-09T17:48:40.882Z,101579.22
2022-11-09T17:51:09.750Z,101558.72
2022-11-09T17:53:37.955Z,101561.22
2022-11-09T17:56:06.907Z,101546.78
2022-11-09T17:58:35.963Z,101545.09
2022-11-09T18:01:13.378Z,101574.94
2022-11-09T18:03:42.051Z,101573.22
2022-11-09T18:06:14.949Z,101564.66
2022-11-09T18:08:44.431Z,101565.50
2022-11-09T18:11:13.233Z,101566.41
2022-11-09T18:13:43.947Z,101567.25
2022-11-09T18:16:17.629Z,101572.38
2022-11-09T18:18:46.447Z,101573.25
2022-11-09T18:21:19.689Z,101568.09
2022-11-09T18:23:47.837Z,101570.69
2022-11-09T18:26:15.876Z,101569.81
2022-11-09T18:28:44.128Z,101574.97
2022-11-09T18:31:14.539Z,101569.81
2022-11-09T18:33:43.757Z,101569.84
2022-11-09T18:36:19.803Z,101563.81
2022-11-09T18:38:48.163Z,101568.09
2022-11-09T18:41:19.363Z,101571.53
2022-11-09T18:43:49.702Z,101568.06
2022-11-09T18:46:20.187Z,101556.97
2022-11-09T18:48:54.372Z,101567.25
2022-11-09T18:51:22.554Z,101570.72
2022-11-09T18:53:50.540Z,101556.16
2022-11-09T18:56:25.377Z,101559.53
2022-11-09T18:58:55.721Z,101552.66
2022-11-09T19:01:26.269Z,101562.06
2022-11-09T19:03:59.339Z,101549.28
2022-11-09T19:06:28.693Z,101552.59
2022-11-09T19:09:15.384Z,101540.72
2022-11-09T19:11:43.548Z,101562.91
2022-11-09T19:14:11.845Z,101560.38
2022-11-09T19:16:41.567Z,101568.97
2022-11-09T19:19:12.822Z,101556.97
2022-11-09T19:21:44.288Z,101562.97
2022-11-09T19:24:15.071Z,101554.41
2022-11-09T19:26:43.059Z,101558.69
2022-11-09T19:29:13.399Z,101562.13
2022-11-09T19:31:44.878Z,101563.81
2022-11-09T19:34:15.335Z,101570.66
2022-11-09T19:36:46.331Z,101562.91
2022-11-09T19:39:16.626Z,101561.16
2022-11-09T19:41:44.888Z,101572.31
2022-11-09T19:44:18.187Z,101553.50
2022-11-09T19:46:48.321Z,101556.00
2022-11-09T19:49:16.334Z,101566.28
2022-11-09T19:51:44.374Z,101568.00
2022-11-09T19:54:15.644Z,101561.97
2022-11-09T19:56:43.697Z,101560.28
2022-11-09T19:59:15.406Z,101567.97
2022-11-09T20:01:45.666Z,101560.28
2022-11-09T20:04:13.778Z,101563.72
2022-11-09T20:06:42.262Z,101576.59
2022-11-09T20:09:10.528Z,101568.00
2022-11-09T20:11:57.181Z,101558.56
2022-11-09T20:14:25.266Z,101559.44
2022-11-09T20:16:54.736Z,101560.31
2022-11-09T20:19:24.388Z,101562.84
2022-11-09T20:21:52.560Z,101557.69
2022-11-09T20:24:20.584Z,101562.84
2022-11-09T20:26:48.567Z,101560.28
2022-11-09T20:29:16.706Z,101551.84
2022-11-09T20:31:44.660Z,101561.19
2022-11-09T20:34:12.727Z,101556.91
2022-11-09T20:36:43.306Z,101528.84
2022-11-09T20:39:11.440Z,101548.31
2022-11-09T20:41:39.750Z,101567.16
2022-11-09T20:44:08.071Z,101550.91
2022-11-09T20:46:36.952Z,101558.66
2022-11-09T20:49:05.862Z,101556.06
2022-11-09T20:51:34.017Z,101554.34
2022-11-09T20:54:06.818Z,101562.94
2022-11-09T20:56:35.474Z,101549.22
2022-11-09T20:59:04.779Z,101549.22
2022-11-09T21:01:32.897Z,101556.97
2022-11-09T21:04:02.089Z,101561.28
2022-11-09T21:06:30.377Z,101548.44
2022-11-09T21:09:01.051Z,101539.97
2022-11-09T21:11:59.004Z,101549.28
2022-11-09T21:14:27.235Z,101539.03
2022-11-09T21:16:55.289Z,101548.41
2022-11-09T21:19:23.482Z,101542.41
2022-11-09T21:21:52.607Z,101539.88
2022-11-09T21:24:40.711Z,101534.72
2022-11-09T21:27:30.004Z,101542.44
2022-11-09T21:29:58.367Z,101499.91
2022-11-09T21:32:26.446Z,101539.91
2022-11-09T21:34:54.465Z,101539.88
2022-11-09T21:37:22.559Z,101540.72
2022-11-09T21:39:50.626Z,101538.16
2022-11-09T21:42:18.697Z,101542.50
2022-11-09T21:44:46.859Z,101540.78
2022-11-09T21:47:14.846Z,101545.94
2022-11-09T21:49:42.828Z,101530.50
2022-11-09T21:52:10.962Z,101542.50
2022-11-09T21:54:39.578Z,101536.47
2022-11-09T21:57:07.606Z,101539.91
2022-11-09T21:59:35.818Z,101534.75
2022-11-09T22:02:04.855Z,101545.03
2022-11-09T22:04:34.565Z,101530.47
2022-11-09T22:07:02.672Z,101532.19
2022-11-09T22:09:50.646Z,101524.50
2022-11-09T22:12:38.581Z,101523.59
2022-11-09T22:15:25.310Z,101532.16
2022-11-09T22:17:56.667Z,101534.78
2022-11-09T22:20:42.782Z,101530.50
2022-11-09T22:23:10.988Z,101526.16
2022-11-09T22:25:41.661Z,101527.03
2022-11-09T22:28:12.007Z,101531.28
2022-11-09T22:30:40.230Z,101529.59
2022-11-09T22:33:08.273Z,101527.94
2022-11-09T22:35:36.230Z,101536.53
2022-11-09T22:38:05.823Z,101537.38
2022-11-09T22:40:33.471Z,101536.53
2022-11-09T22:43:01.353Z,101534.81
2022-11-09T22:45:29.511Z,101495.78
2022-11-09T22:47:57.346Z,101535.72
2022-11-09T22:50:25.369Z,101525.41
2022-11-09T22:53:00.830Z,101539.97
2022-11-09T22:55:31.376Z,101483.84
2022-11-09T22:59:00.673Z,101542.56
2022-11-09T23:01:28.903Z,101527.22
2022-11-09T23:03:56.934Z,101528.94
2022-11-09T23:06:25.353Z,101532.22
2022-11-09T23:08:53.307Z,101434.66
2022-11-09T23:11:23.410Z,101519.47
2022-11-09T23:13:57.763Z,101527.94
2022-11-09T23:16:26.080Z,101533.91
2022-11-09T23:18:56.982Z,101535.66
2022-11-09T23:21:31.633Z,101528.81
2022-11-09T23:24:03.159Z,101533.97
2022-11-09T23:26:31.948Z,101534.81
2022-11-09T23:29:01.210Z,101529.66
2022-11-09T23:31:29.213Z,101526.22
2022-11-09T23:33:58.669Z,101525.44
2022-11-09T23:36:27.561Z,101532.25
2022-11-09T23:38:55.668Z,101540.81
2022-11-09T23:41:23.739Z,101531.34
2022-11-09T23:43:55.913Z,101533.91
2022-11-09T23:46:23.857Z,101517.78
2022-11-09T23:48:51.871Z,101536.53
2022-11-09T23:51:20.677Z,101536.56
2022-11-09T23:53:48.663Z,101528.84
2022-11-09T23:56:16.684Z,101522.91
2022-11-09T23:58:49.138Z,101537.47
